sensor_id;sensor_type;location;lat;lon;timestamp;P1;durP1;ratioP1;P2;durP2;ratioP2
16197;SDS011;8206;51.440;6.914;2023-07-20T00:00:45;0.88;;;0.88;;
16197;SDS011;8206;51.440;6.914;2023-07-20T00:03:12;1.38;;;0.82;;
16197;SDS011;8206;51.440;6.914;2023-07-20T00:05:41;0.47;;;0.47;;
16197;SDS011;8206;51.440;6.914;2023-07-20T00:08:08;1.27;;;1.27;;
16197;SDS011;8206;51.440;6.914;2023-07-20T00:10:36;1.50;;;1.40;;
16197;SDS011;8206;51.440;6.914;2023-07-20T00:13:03;2.42;;;1.48;;
16197;SDS011;8206;51.440;6.914;2023-07-20T00:15:31;0.88;;;0.88;;
16197;SDS011;8206;51.440;6.914;2023-07-20T00:17:57;0.80;;;0.80;;
16197;SDS011;8206;51.440;6.914;2023-07-20T00:20:24;1.65;;;1.10;;
16197;SDS011;8206;51.440;6.914;2023-07-20T00:22:51;0.82;;;0.82;;
16197;SDS011;8206;51.440;6.914;2023-07-20T00:25:17;1.88;;;1.77;;
16197;SDS011;8206;51.440;6.914;2023-07-20T00:27:45;4.80;;;2.30;;
16197;SDS011;8206;51.440;6.914;2023-07-20T00:30:12;1.05;;;1.05;;
16197;SDS011;8206;51.440;6.914;2023-07-20T00:32:39;0.70;;;0.63;;
16197;SDS011;8206;51.440;6.914;2023-07-20T00:35:07;0.98;;;0.98;;
16197;SDS011;8206;51.440;6.914;2023-07-20T00:37:34;1.17;;;1.08;;
16197;SDS011;8206;51.440;6.914;2023-07-20T00:40:01;1.10;;;1.10;;
16197;SDS011;8206;51.440;6.914;2023-07-20T00:42:29;1.20;;;1.10;;
16197;SDS011;8206;51.440;6.914;2023-07-20T00:44:57;0.63;;;0.63;;
16197;SDS011;8206;51.440;6.914;2023-07-20T00:47:24;0.77;;;0.77;;
16197;SDS011;8206;51.440;6.914;2023-07-20T00:49:51;0.70;;;0.70;;
16197;SDS011;8206;51.440;6.914;2023-07-20T00:52:18;2.92;;;1.10;;
16197;SDS011;8206;51.440;6.914;2023-07-20T00:54:47;2.08;;;1.48;;
16197;SDS011;8206;51.440;6.914;2023-07-20T00:57:15;1.00;;;1.00;;
16197;SDS011;8206;51.440;6.914;2023-07-20T00:59:42;0.98;;;0.98;;
16197;SDS011;8206;51.440;6.914;2023-07-20T01:02:11;1.15;;;0.93;;
16197;SDS011;8206;51.440;6.914;2023-07-20T01:04:37;1.33;;;1.33;;
16197;SDS011;8206;51.440;6.914;2023-07-20T01:07:06;0.52;;;0.52;;
16197;SDS011;8206;51.440;6.914;2023-07-20T01:09:39;1.38;;;1.27;;
16197;SDS011;8206;51.440;6.914;2023-07-20T01:12:09;1.35;;;1.35;;
16197;SDS011;8206;51.440;6.914;2023-07-20T01:14:44;1.05;;;1.05;;
16197;SDS011;8206;51.440;6.914;2023-07-20T01:17:12;1.63;;;1.52;;
16197;SDS011;8206;51.440;6.914;2023-07-20T01:19:39;1.20;;;1.10;;
16197;SDS011;8206;51.440;6.914;2023-07-20T01:22:09;1.08;;;1.08;;
16197;SDS011;8206;51.440;6.914;2023-07-20T01:24:51;3.47;;;1.55;;
16197;SDS011;8206;51.440;6.914;2023-07-20T01:27:36;1.92;;;1.70;;
16197;SDS011;8206;51.440;6.914;2023-07-20T01:30:35;1.60;;;0.85;;
16197;SDS011;8206;51.440;6.914;2023-07-20T01:33:18;0.70;;;0.70;;
16197;SDS011;8206;51.440;6.914;2023-07-20T01:35:48;2.85;;;1.65;;
16197;SDS011;8206;51.440;6.914;2023-07-20T01:38:19;1.70;;;1.48;;
16197;SDS011;8206;51.440;6.914;2023-07-20T01:40:47;1.92;;;1.65;;
16197;SDS011;8206;51.440;6.914;2023-07-20T01:43:15;1.30;;;1.23;;
16197;SDS011;8206;51.440;6.914;2023-07-20T01:45:42;1.50;;;1.38;;
16197;SDS011;8206;51.440;6.914;2023-07-20T01:48:09;5.35;;;1.58;;
16197;SDS011;8206;51.440;6.914;2023-07-20T01:50:38;4.50;;;2.40;;
16197;SDS011;8206;51.440;6.914;2023-07-20T01:53:04;1.75;;;1.63;;
16197;SDS011;8206;51.440;6.914;2023-07-20T01:55:31;1.50;;;1.27;;
16197;SDS011;8206;51.440;6.914;2023-07-20T01:57:58;0.90;;;0.90;;
16197;SDS011;8206;51.440;6.914;2023-07-20T02:00:26;1.45;;;1.42;;
16197;SDS011;8206;51.440;6.914;2023-07-20T02:02:53;1.67;;;1.58;;
16197;SDS011;8206;51.440;6.914;2023-07-20T02:05:20;5.03;;;2.08;;
16197;SDS011;8206;51.440;6.914;2023-07-20T02:07:48;1.80;;;1.70;;
16197;SDS011;8206;51.440;6.914;2023-07-20T02:10:15;2.50;;;1.83;;
16197;SDS011;8206;51.440;6.914;2023-07-20T02:12:42;1.85;;;1.52;;
16197;SDS011;8206;51.440;6.914;2023-07-20T02:15:09;3.78;;;2.25;;
16197;SDS011;8206;51.440;6.914;2023-07-20T02:17:38;1.25;;;1.25;;
16197;SDS011;8206;51.440;6.914;2023-07-20T02:20:06;1.40;;;1.40;;
16197;SDS011;8206;51.440;6.914;2023-07-20T02:22:35;3.80;;;2.13;;
16197;SDS011;8206;51.440;6.914;2023-07-20T02:25:03;2.08;;;1.98;;
16197;SDS011;8206;51.440;6.914;2023-07-20T02:27:30;2.15;;;2.05;;
16197;SDS011;8206;51.440;6.914;2023-07-20T02:29:57;2.08;;;1.98;;
16197;SDS011;8206;51.440;6.914;2023-07-20T02:32:23;0.85;;;0.85;;
16197;SDS011;8206;51.440;6.914;2023-07-20T02:34:50;1.45;;;1.35;;
16197;SDS011;8206;51.440;6.914;2023-07-20T02:37:17;2.83;;;2.53;;
16197;SDS011;8206;51.440;6.914;2023-07-20T02:39:44;3.05;;;2.75;;
16197;SDS011;8206;51.440;6.914;2023-07-20T02:42:12;7.43;;;2.47;;
16197;SDS011;8206;51.440;6.914;2023-07-20T02:44:39;2.70;;;1.52;;
16197;SDS011;8206;51.440;6.914;2023-07-20T02:47:06;1.05;;;1.05;;
16197;SDS011;8206;51.440;6.914;2023-07-20T02:49:33;3.97;;;1.25;;
16197;SDS011;8206;51.440;6.914;2023-07-20T02:52:00;2.05;;;1.95;;
16197;SDS011;8206;51.440;6.914;2023-07-20T02:54:29;4.20;;;2.60;;
16197;SDS011;8206;51.440;6.914;2023-07-20T02:56:56;1.83;;;1.80;;
16197;SDS011;8206;51.440;6.914;2023-07-20T02:59:24;2.00;;;1.92;;
16197;SDS011;8206;51.440;6.914;2023-07-20T03:01:50;2.17;;;2.10;;
16197;SDS011;8206;51.440;6.914;2023-07-20T03:04:17;3.00;;;1.75;;
16197;SDS011;8206;51.440;6.914;2023-07-20T03:06:44;2.50;;;2.22;;
16197;SDS011;8206;51.440;6.914;2023-07-20T03:09:11;3.10;;;2.90;;
16197;SDS011;8206;51.440;6.914;2023-07-20T03:11:38;1.85;;;1.75;;
16197;SDS011;8206;51.440;6.914;2023-07-20T03:14:04;2.90;;;2.50;;
16197;SDS011;8206;51.440;6.914;2023-07-20T03:16:32;3.33;;;2.40;;
16197;SDS011;8206;51.440;6.914;2023-07-20T03:18:59;3.60;;;3.30;;
16197;SDS011;8206;51.440;6.914;2023-07-20T03:21:26;10.23;;;3.20;;
16197;SDS011;8206;51.440;6.914;2023-07-20T03:23:53;22.75;;;3.05;;
16197;SDS011;8206;51.440;6.914;2023-07-20T03:26:19;3.95;;;3.60;;
16197;SDS011;8206;51.440;6.914;2023-07-20T03:28:46;2.00;;;1.95;;
16197;SDS011;8206;51.440;6.914;2023-07-20T03:31:13;2.97;;;2.60;;
16197;SDS011;8206;51.440;6.914;2023-07-20T03:33:42;3.20;;;2.88;;
16197;SDS011;8206;51.440;6.914;2023-07-20T03:36:08;12.57;;;3.53;;
16197;SDS011;8206;51.440;6.914;2023-07-20T03:38:36;2.90;;;2.08;;
16197;SDS011;8206;51.440;6.914;2023-07-20T03:41:02;4.82;;;3.08;;
16197;SDS011;8206;51.440;6.914;2023-07-20T03:43:29;2.00;;;1.90;;
16197;SDS011;8206;51.440;6.914;2023-07-20T03:45:56;1.50;;;1.40;;
16197;SDS011;8206;51.440;6.914;2023-07-20T03:48:23;3.08;;;2.88;;
16197;SDS011;8206;51.440;6.914;2023-07-20T03:50:52;2.25;;;2.13;;
16197;SDS011;8206;51.440;6.914;2023-07-20T03:53:20;2.25;;;2.15;;
16197;SDS011;8206;51.440;6.914;2023-07-20T03:55:47;2.60;;;2.50;;
16197;SDS011;8206;51.440;6.914;2023-07-20T03:58:14;2.00;;;1.75;;
16197;SDS011;8206;51.440;6.914;2023-07-20T04:00:43;3.75;;;3.40;;
16197;SDS011;8206;51.440;6.914;2023-07-20T04:03:10;2.30;;;2.15;;
16197;SDS011;8206;51.440;6.914;2023-07-20T04:05:37;3.22;;;3.03;;
16197;SDS011;8206;51.440;6.914;2023-07-20T04:08:05;3.80;;;3.35;;
16197;SDS011;8206;51.440;6.914;2023-07-20T04:10:32;2.05;;;1.95;;
16197;SDS011;8206;51.440;6.914;2023-07-20T04:12:59;4.30;;;3.90;;
16197;SDS011;8206;51.440;6.914;2023-07-20T04:15:26;4.82;;;4.40;;
16197;SDS011;8206;51.440;6.914;2023-07-20T04:17:53;3.38;;;3.08;;
16197;SDS011;8206;51.440;6.914;2023-07-20T04:20:21;6.15;;;5.68;;
16197;SDS011;8206;51.440;6.914;2023-07-20T04:22:48;3.42;;;3.22;;
16197;SDS011;8206;51.440;6.914;2023-07-20T04:25:16;3.92;;;3.63;;
16197;SDS011;8206;51.440;6.914;2023-07-20T04:27:43;2.85;;;2.22;;
16197;SDS011;8206;51.440;6.914;2023-07-20T04:30:10;3.35;;;2.72;;
16197;SDS011;8206;51.440;6.914;2023-07-20T04:32:37;4.47;;;2.95;;
16197;SDS011;8206;51.440;6.914;2023-07-20T04:35:16;3.17;;;2.97;;
16197;SDS011;8206;51.440;6.914;2023-07-20T04:37:44;2.63;;;2.53;;
16197;SDS011;8206;51.440;6.914;2023-07-20T04:40:11;4.45;;;3.00;;
16197;SDS011;8206;51.440;6.914;2023-07-20T04:42:40;1.52;;;1.52;;
16197;SDS011;8206;51.440;6.914;2023-07-20T04:45:07;5.68;;;3.25;;
16197;SDS011;8206;51.440;6.914;2023-07-20T04:47:34;2.45;;;2.35;;
16197;SDS011;8206;51.440;6.914;2023-07-20T04:50:01;1.60;;;1.55;;
16197;SDS011;8206;51.440;6.914;2023-07-20T04:52:27;1.70;;;1.60;;
16197;SDS011;8206;51.440;6.914;2023-07-20T04:54:54;2.63;;;2.53;;
16197;SDS011;8206;51.440;6.914;2023-07-20T04:57:21;3.63;;;3.35;;
16197;SDS011;8206;51.440;6.914;2023-07-20T04:59:51;3.50;;;3.00;;
16197;SDS011;8206;51.440;6.914;2023-07-20T05:02:18;2.05;;;1.95;;
16197;SDS011;8206;51.440;6.914;2023-07-20T05:04:44;6.30;;;3.13;;
16197;SDS011;8206;51.440;6.914;2023-07-20T05:07:11;6.10;;;3.17;;
16197;SDS011;8206;51.440;6.914;2023-07-20T05:09:38;1.98;;;1.88;;
16197;SDS011;8206;51.440;6.914;2023-07-20T05:12:05;2.40;;;2.28;;
16197;SDS011;8206;51.440;6.914;2023-07-20T05:14:32;4.70;;;1.65;;
16197;SDS011;8206;51.440;6.914;2023-07-20T05:17:00;1.30;;;1.20;;
16197;SDS011;8206;51.440;6.914;2023-07-20T05:19:27;1.73;;;1.73;;
16197;SDS011;8206;51.440;6.914;2023-07-20T05:21:54;2.75;;;2.65;;
16197;SDS011;8206;51.440;6.914;2023-07-20T05:24:21;2.38;;;2.22;;
16197;SDS011;8206;51.440;6.914;2023-07-20T05:26:47;2.40;;;2.20;;
16197;SDS011;8206;51.440;6.914;2023-07-20T05:29:14;2.22;;;2.13;;
16197;SDS011;8206;51.440;6.914;2023-07-20T05:31:41;2.28;;;2.13;;
16197;SDS011;8206;51.440;6.914;2023-07-20T05:34:09;3.08;;;2.22;;
16197;SDS011;8206;51.440;6.914;2023-07-20T05:36:36;2.53;;;2.33;;
16197;SDS011;8206;51.440;6.914;2023-07-20T05:39:03;2.63;;;2.53;;
16197;SDS011;8206;51.440;6.914;2023-07-20T05:41:30;2.38;;;2.28;;
16197;SDS011;8206;51.440;6.914;2023-07-20T05:43:56;2.10;;;2.00;;
16197;SDS011;8206;51.440;6.914;2023-07-20T05:46:23;1.42;;;1.42;;
16197;SDS011;8206;51.440;6.914;2023-07-20T05:48:50;1.25;;;1.20;;
16197;SDS011;8206;51.440;6.914;2023-07-20T05:51:18;1.60;;;1.50;;
16197;SDS011;8206;51.440;6.914;2023-07-20T05:53:45;1.35;;;1.25;;
16197;SDS011;8206;51.440;6.914;2023-07-20T05:56:13;1.73;;;1.63;;
16197;SDS011;8206;51.440;6.914;2023-07-20T05:58:40;1.42;;;1.38;;
16197;SDS011;8206;51.440;6.914;2023-07-20T06:01:06;1.05;;;1.05;;
16197;SDS011;8206;51.440;6.914;2023-07-20T06:03:33;1.20;;;1.10;;
16197;SDS011;8206;51.440;6.914;2023-07-20T06:06:00;0.80;;;0.80;;
16197;SDS011;8206;51.440;6.914;2023-07-20T06:08:28;1.05;;;1.02;;
16197;SDS011;8206;51.440;6.914;2023-07-20T06:10:55;0.82;;;0.82;;
16197;SDS011;8206;51.440;6.914;2023-07-20T06:13:22;2.05;;;1.95;;
16197;SDS011;8206;51.440;6.914;2023-07-20T06:15:50;0.90;;;0.90;;
16197;SDS011;8206;51.440;6.914;2023-07-20T06:18:16;0.95;;;0.95;;
16197;SDS011;8206;51.440;6.914;2023-07-20T06:20:48;1.52;;;1.42;;
16197;SDS011;8206;51.440;6.914;2023-07-20T06:23:15;0.85;;;0.85;;
16197;SDS011;8206;51.440;6.914;2023-07-20T06:25:43;1.75;;;1.55;;
16197;SDS011;8206;51.440;6.914;2023-07-20T06:28:10;0.70;;;0.70;;
16197;SDS011;8206;51.440;6.914;2023-07-20T06:30:36;1.30;;;1.30;;
16197;SDS011;8206;51.440;6.914;2023-07-20T06:33:03;0.82;;;0.82;;
16197;SDS011;8206;51.440;6.914;2023-07-20T06:35:30;0.57;;;0.57;;
16197;SDS011;8206;51.440;6.914;2023-07-20T06:37:56;0.98;;;0.98;;
16197;SDS011;8206;51.440;6.914;2023-07-20T06:40:25;1.75;;;1.65;;
16197;SDS011;8206;51.440;6.914;2023-07-20T06:42:53;1.13;;;1.10;;
16197;SDS011;8206;51.440;6.914;2023-07-20T06:45:20;1.58;;;1.50;;
16197;SDS011;8206;51.440;6.914;2023-07-20T06:47:47;0.20;;;0.20;;
16197;SDS011;8206;51.440;6.914;2023-07-20T06:50:13;0.50;;;0.50;;
16197;SDS011;8206;51.440;6.914;2023-07-20T06:52:40;1.52;;;0.38;;
16197;SDS011;8206;51.440;6.914;2023-07-20T06:55:07;0.35;;;0.35;;
16197;SDS011;8206;51.440;6.914;2023-07-20T06:57:34;0.77;;;0.77;;
16197;SDS011;8206;51.440;6.914;2023-07-20T07:00:03;1.17;;;1.08;;
16197;SDS011;8206;51.440;6.914;2023-07-20T07:02:31;0.50;;;0.50;;
16197;SDS011;8206;51.440;6.914;2023-07-20T07:04:59;0.52;;;0.35;;
16197;SDS011;8206;51.440;6.914;2023-07-20T07:07:25;0.20;;;0.20;;
16197;SDS011;8206;51.440;6.914;2023-07-20T07:09:52;1.25;;;1.00;;
16197;SDS011;8206;51.440;6.914;2023-07-20T07:12:19;0.30;;;0.30;;
16197;SDS011;8206;51.440;6.914;2023-07-20T07:14:45;0.30;;;0.30;;
16197;SDS011;8206;51.440;6.914;2023-07-20T07:17:13;0.57;;;0.57;;
16197;SDS011;8206;51.440;6.914;2023-07-20T07:19:40;0.30;;;0.30;;
16197;SDS011;8206;51.440;6.914;2023-07-20T07:22:07;0.20;;;0.20;;
16197;SDS011;8206;51.440;6.914;2023-07-20T07:24:33;0.15;;;0.15;;
16197;SDS011;8206;51.440;6.914;2023-07-20T07:27:01;0.17;;;0.17;;
16197;SDS011;8206;51.440;6.914;2023-07-20T07:29:28;3.03;;;0.65;;
16197;SDS011;8206;51.440;6.914;2023-07-20T07:31:55;1.00;;;0.30;;
16197;SDS011;8206;51.440;6.914;2023-07-20T07:34:24;0.60;;;0.60;;
16197;SDS011;8206;51.440;6.914;2023-07-20T07:36:51;0.65;;;0.65;;
16197;SDS011;8206;51.440;6.914;2023-07-20T07:39:18;0.40;;;0.40;;
16197;SDS011;8206;51.440;6.914;2023-07-20T07:41:45;0.32;;;0.32;;
16197;SDS011;8206;51.440;6.914;2023-07-20T07:44:12;0.40;;;0.40;;
16197;SDS011;8206;51.440;6.914;2023-07-20T07:46:38;0.40;;;0.40;;
16197;SDS011;8206;51.440;6.914;2023-07-20T07:49:06;0.30;;;0.30;;
16197;SDS011;8206;51.440;6.914;2023-07-20T07:51:34;0.13;;;0.13;;
16197;SDS011;8206;51.440;6.914;2023-07-20T07:54:01;0.32;;;0.32;;
16197;SDS011;8206;51.440;6.914;2023-07-20T07:56:28;0.17;;;0.17;;
16197;SDS011;8206;51.440;6.914;2023-07-20T07:58:54;0.15;;;0.15;;
16197;SDS011;8206;51.440;6.914;2023-07-20T08:01:21;0.28;;;0.28;;
16197;SDS011;8206;51.440;6.914;2023-07-20T08:03:48;0.10;;;0.10;;
16197;SDS011;8206;51.440;6.914;2023-07-20T08:06:16;2.78;;;0.68;;
16197;SDS011;8206;51.440;6.914;2023-07-20T08:08:44;0.20;;;0.20;;
16197;SDS011;8206;51.440;6.914;2023-07-20T08:11:10;0.10;;;0.10;;
16197;SDS011;8206;51.440;6.914;2023-07-20T08:13:38;0.52;;;0.43;;
16197;SDS011;8206;51.440;6.914;2023-07-20T08:16:04;0.17;;;0.17;;
16197;SDS011;8206;51.440;6.914;2023-07-20T08:18:31;0.20;;;0.20;;
16197;SDS011;8206;51.440;6.914;2023-07-20T08:20:58;1.95;;;0.60;;
16197;SDS011;8206;51.440;6.914;2023-07-20T08:23:24;0.13;;;0.13;;
16197;SDS011;8206;51.440;6.914;2023-07-20T08:25:53;0.22;;;0.22;;
16197;SDS011;8206;51.440;6.914;2023-07-20T08:28:20;0.10;;;0.10;;
16197;SDS011;8206;51.440;6.914;2023-07-20T08:30:47;0.10;;;0.10;;
16197;SDS011;8206;51.440;6.914;2023-07-20T08:33:16;0.20;;;0.20;;
16197;SDS011;8206;51.440;6.914;2023-07-20T08:35:44;0.20;;;0.20;;
16197;SDS011;8206;51.440;6.914;2023-07-20T08:38:12;0.20;;;0.20;;
16197;SDS011;8206;51.440;6.914;2023-07-20T08:40:39;0.10;;;0.10;;
16197;SDS011;8206;51.440;6.914;2023-07-20T08:43:08;0.20;;;0.20;;
16197;SDS011;8206;51.440;6.914;2023-07-20T08:45:36;0.17;;;0.17;;
16197;SDS011;8206;51.440;6.914;2023-07-20T08:48:05;0.32;;;0.32;;
16197;SDS011;8206;51.440;6.914;2023-07-20T08:50:33;0.45;;;0.45;;
16197;SDS011;8206;51.440;6.914;2023-07-20T08:53:01;0.38;;;0.38;;
16197;SDS011;8206;51.440;6.914;2023-07-20T08:55:28;0.63;;;0.63;;
16197;SDS011;8206;51.440;6.914;2023-07-20T08:57:55;0.40;;;0.40;;
16197;SDS011;8206;51.440;6.914;2023-07-20T09:00:25;0.25;;;0.25;;
16197;SDS011;8206;51.440;6.914;2023-07-20T09:02:53;0.20;;;0.20;;
16197;SDS011;8206;51.440;6.914;2023-07-20T09:05:22;0.30;;;0.30;;
16197;SDS011;8206;51.440;6.914;2023-07-20T09:07:50;0.60;;;0.60;;
16197;SDS011;8206;51.440;6.914;2023-07-20T09:10:17;0.50;;;0.50;;
16197;SDS011;8206;51.440;6.914;2023-07-20T09:12:46;0.55;;;0.55;;
16197;SDS011;8206;51.440;6.914;2023-07-20T09:15:13;0.25;;;0.25;;
16197;SDS011;8206;51.440;6.914;2023-07-20T09:17:44;0.35;;;0.35;;
16197;SDS011;8206;51.440;6.914;2023-07-20T09:20:12;0.38;;;0.38;;
16197;SDS011;8206;51.440;6.914;2023-07-20T09:22:41;0.30;;;0.30;;
16197;SDS011;8206;51.440;6.914;2023-07-20T09:25:11;0.60;;;0.60;;
16197;SDS011;8206;51.440;6.914;2023-07-20T09:27:39;0.10;;;0.10;;
16197;SDS011;8206;51.440;6.914;2023-07-20T09:30:07;0.25;;;0.25;;
16197;SDS011;8206;51.440;6.914;2023-07-20T09:32:39;0.10;;;0.10;;
16197;SDS011;8206;51.440;6.914;2023-07-20T09:35:13;0.30;;;0.30;;
16197;SDS011;8206;51.440;6.914;2023-07-20T09:37:45;1.73;;;0.98;;
16197;SDS011;8206;51.440;6.914;2023-07-20T09:40:14;0.25;;;0.25;;
16197;SDS011;8206;51.440;6.914;2023-07-20T09:42:42;0.35;;;0.35;;
16197;SDS011;8206;51.440;6.914;2023-07-20T09:45:09;0.30;;;0.30;;
16197;SDS011;8206;51.440;6.914;2023-07-20T09:47:36;0.40;;;0.40;;
16197;SDS011;8206;51.440;6.914;2023-07-20T09:50:05;0.55;;;0.55;;
16197;SDS011;8206;51.440;6.914;2023-07-20T09:52:36;0.25;;;0.25;;
16197;SDS011;8206;51.440;6.914;2023-07-20T09:55:05;0.30;;;0.30;;
16197;SDS011;8206;51.440;6.914;2023-07-20T09:57:33;0.25;;;0.25;;
16197;SDS011;8206;51.440;6.914;2023-07-20T10:00:04;0.65;;;0.65;;
16197;SDS011;8206;51.440;6.914;2023-07-20T10:02:41;0.40;;;0.40;;
16197;SDS011;8206;51.440;6.914;2023-07-20T10:05:10;0.52;;;0.52;;
16197;SDS011;8206;51.440;6.914;2023-07-20T10:07:43;1.52;;;1.42;;
16197;SDS011;8206;51.440;6.914;2023-07-20T10:10:11;0.95;;;0.82;;
16197;SDS011;8206;51.440;6.914;2023-07-20T10:12:40;0.35;;;0.35;;
16197;SDS011;8206;51.440;6.914;2023-07-20T10:15:10;2.30;;;0.82;;
16197;SDS011;8206;51.440;6.914;2023-07-20T10:17:40;0.52;;;0.52;;
16197;SDS011;8206;51.440;6.914;2023-07-20T10:20:16;4.82;;;1.50;;
16197;SDS011;8206;51.440;6.914;2023-07-20T10:22:46;0.32;;;0.25;;
16197;SDS011;8206;51.440;6.914;2023-07-20T10:25:15;0.88;;;0.75;;
16197;SDS011;8206;51.440;6.914;2023-07-20T10:27:42;0.57;;;0.57;;
16197;SDS011;8206;51.440;6.914;2023-07-20T10:30:10;1.67;;;0.73;;
16197;SDS011;8206;51.440;6.914;2023-07-20T10:32:37;2.30;;;0.40;;
16197;SDS011;8206;51.440;6.914;2023-07-20T10:35:11;0.25;;;0.25;;
16197;SDS011;8206;51.440;6.914;2023-07-20T10:37:50;0.32;;;0.32;;
16197;SDS011;8206;51.440;6.914;2023-07-20T10:40:23;0.28;;;0.28;;
16197;SDS011;8206;51.440;6.914;2023-07-20T10:42:51;1.58;;;1.02;;
16197;SDS011;8206;51.440;6.914;2023-07-20T10:45:32;0.85;;;0.85;;
16197;SDS011;8206;51.440;6.914;2023-07-20T10:48:15;0.50;;;0.50;;
16197;SDS011;8206;51.440;6.914;2023-07-20T10:50:44;3.75;;;1.10;;
16197;SDS011;8206;51.440;6.914;2023-07-20T10:53:16;0.70;;;0.70;;
16197;SDS011;8206;51.440;6.914;2023-07-20T10:55:44;1.35;;;0.63;;
16197;SDS011;8206;51.440;6.914;2023-07-20T10:58:15;0.85;;;0.85;;
16197;SDS011;8206;51.440;6.914;2023-07-20T11:00:57;0.63;;;0.63;;
16197;SDS011;8206;51.440;6.914;2023-07-20T11:03:26;0.90;;;0.65;;
16197;SDS011;8206;51.440;6.914;2023-07-20T11:05:54;0.52;;;0.50;;
16197;SDS011;8206;51.440;6.914;2023-07-20T11:08:37;0.50;;;0.50;;
16197;SDS011;8206;51.440;6.914;2023-07-20T11:11:24;0.40;;;0.40;;
16197;SDS011;8206;51.440;6.914;2023-07-20T11:13:55;0.45;;;0.45;;
16197;SDS011;8206;51.440;6.914;2023-07-20T11:16:39;0.95;;;0.25;;
16197;SDS011;8206;51.440;6.914;2023-07-20T11:19:13;0.43;;;0.43;;
16197;SDS011;8206;51.440;6.914;2023-07-20T11:21:41;0.85;;;0.85;;
16197;SDS011;8206;51.440;6.914;2023-07-20T11:24:12;0.70;;;0.70;;
16197;SDS011;8206;51.440;6.914;2023-07-20T11:26:39;0.47;;;0.47;;
16197;SDS011;8206;51.440;6.914;2023-07-20T11:29:10;2.03;;;0.95;;
16197;SDS011;8206;51.440;6.914;2023-07-20T11:31:37;0.30;;;0.30;;
16197;SDS011;8206;51.440;6.914;2023-07-20T11:34:04;0.32;;;0.32;;
16197;SDS011;8206;51.440;6.914;2023-07-20T11:36:31;1.83;;;0.55;;
16197;SDS011;8206;51.440;6.914;2023-07-20T11:39:00;0.63;;;0.63;;
16197;SDS011;8206;51.440;6.914;2023-07-20T11:41:31;0.30;;;0.30;;
16197;SDS011;8206;51.440;6.914;2023-07-20T11:43:58;0.30;;;0.30;;
16197;SDS011;8206;51.440;6.914;2023-07-20T11:46:25;0.65;;;0.65;;
16197;SDS011;8206;51.440;6.914;2023-07-20T11:48:57;2.00;;;1.08;;
16197;SDS011;8206;51.440;6.914;2023-07-20T11:51:24;0.32;;;0.32;;
16197;SDS011;8206;51.440;6.914;2023-07-20T11:53:52;0.10;;;0.10;;
16197;SDS011;8206;51.440;6.914;2023-07-20T11:56:19;0.55;;;0.55;;
16197;SDS011;8206;51.440;6.914;2023-07-20T11:58:47;0.10;;;0.10;;
16197;SDS011;8206;51.440;6.914;2023-07-20T12:01:14;0.30;;;0.30;;
16197;SDS011;8206;51.440;6.914;2023-07-20T12:03:41;0.65;;;0.63;;
16197;SDS011;8206;51.440;6.914;2023-07-20T12:06:09;0.30;;;0.30;;
16197;SDS011;8206;51.440;6.914;2023-07-20T12:08:38;0.40;;;0.40;;
16197;SDS011;8206;51.440;6.914;2023-07-20T12:11:06;1.60;;;0.70;;
16197;SDS011;8206;51.440;6.914;2023-07-20T12:13:36;0.43;;;0.43;;
16197;SDS011;8206;51.440;6.914;2023-07-20T12:16:09;0.28;;;0.28;;
16197;SDS011;8206;51.440;6.914;2023-07-20T12:18:37;0.20;;;0.20;;
16197;SDS011;8206;51.440;6.914;2023-07-20T12:21:05;0.52;;;0.52;;
16197;SDS011;8206;51.440;6.914;2023-07-20T12:23:37;0.10;;;0.10;;
16197;SDS011;8206;51.440;6.914;2023-07-20T12:26:08;0.77;;;0.52;;
16197;SDS011;8206;51.440;6.914;2023-07-20T12:28:35;0.43;;;0.40;;
16197;SDS011;8206;51.440;6.914;2023-07-20T12:31:06;0.10;;;0.10;;
16197;SDS011;8206;51.440;6.914;2023-07-20T12:33:34;0.45;;;0.45;;
16197;SDS011;8206;51.440;6.914;2023-07-20T12:36:01;0.10;;;0.10;;
16197;SDS011;8206;51.440;6.914;2023-07-20T12:38:28;0.35;;;0.35;;
16197;SDS011;8206;51.440;6.914;2023-07-20T12:40:55;1.20;;;0.75;;
16197;SDS011;8206;51.440;6.914;2023-07-20T12:43:23;0.10;;;0.10;;
16197;SDS011;8206;51.440;6.914;2023-07-20T12:45:50;0.10;;;0.10;;
16197;SDS011;8206;51.440;6.914;2023-07-20T12:48:17;0.47;;;0.47;;
16197;SDS011;8206;51.440;6.914;2023-07-20T12:50:45;0.30;;;0.30;;
16197;SDS011;8206;51.440;6.914;2023-07-20T12:53:12;1.55;;;0.90;;
16197;SDS011;8206;51.440;6.914;2023-07-20T12:55:38;0.98;;;0.50;;
16197;SDS011;8206;51.440;6.914;2023-07-20T12:58:06;0.65;;;0.60;;
16197;SDS011;8206;51.440;6.914;2023-07-20T13:00:33;0.40;;;0.40;;
16197;SDS011;8206;51.440;6.914;2023-07-20T13:03:00;0.03;;;0.03;;
16197;SDS011;8206;51.440;6.914;2023-07-20T13:05:29;0.10;;;0.10;;
16197;SDS011;8206;51.440;6.914;2023-07-20T13:07:58;8.88;;;1.10;;
16197;SDS011;8206;51.440;6.914;2023-07-20T13:10:25;0.80;;;0.77;;
16197;SDS011;8206;51.440;6.914;2023-07-20T13:12:51;0.35;;;0.30;;
16197;SDS011;8206;51.440;6.914;2023-07-20T13:15:18;0.22;;;0.22;;
16197;SDS011;8206;51.440;6.914;2023-07-20T13:17:45;0.45;;;0.45;;
16197;SDS011;8206;51.440;6.914;2023-07-20T13:20:12;0.45;;;0.45;;
16197;SDS011;8206;51.440;6.914;2023-07-20T13:22:39;5.53;;;0.65;;
16197;SDS011;8206;51.440;6.914;2023-07-20T13:25:08;0.35;;;0.35;;
16197;SDS011;8206;51.440;6.914;2023-07-20T13:27:35;1.17;;;0.85;;
16197;SDS011;8206;51.440;6.914;2023-07-20T13:30:03;0.52;;;0.52;;
16197;SDS011;8206;51.440;6.914;2023-07-20T13:32:31;1.08;;;0.68;;
16197;SDS011;8206;51.440;6.914;2023-07-20T13:34:59;0.40;;;0.40;;
16197;SDS011;8206;51.440;6.914;2023-07-20T13:37:25;0.52;;;0.52;;
16197;SDS011;8206;51.440;6.914;2023-07-20T13:39:53;0.10;;;0.10;;
16197;SDS011;8206;51.440;6.914;2023-07-20T13:42:21;0.17;;;0.17;;
16197;SDS011;8206;51.440;6.914;2023-07-20T13:44:47;0.82;;;0.57;;
16197;SDS011;8206;51.440;6.914;2023-07-20T13:47:14;0.40;;;0.40;;
16197;SDS011;8206;51.440;6.914;2023-07-20T13:49:41;0.22;;;0.22;;
16197;SDS011;8206;51.440;6.914;2023-07-20T13:52:09;0.13;;;0.13;;
16197;SDS011;8206;51.440;6.914;2023-07-20T13:54:36;0.15;;;0.15;;
16197;SDS011;8206;51.440;6.914;2023-07-20T13:57:03;0.10;;;0.10;;
16197;SDS011;8206;51.440;6.914;2023-07-20T13:59:31;0.38;;;0.38;;
16197;SDS011;8206;51.440;6.914;2023-07-20T14:01:58;0.43;;;0.43;;
16197;SDS011;8206;51.440;6.914;2023-07-20T14:04:24;0.10;;;0.10;;
16197;SDS011;8206;51.440;6.914;2023-07-20T14:06:51;0.40;;;0.40;;
16197;SDS011;8206;51.440;6.914;2023-07-20T14:09:18;0.15;;;0.15;;
16197;SDS011;8206;51.440;6.914;2023-07-20T14:11:44;0.20;;;0.20;;
16197;SDS011;8206;51.440;6.914;2023-07-20T14:14:11;0.50;;;0.50;;
16197;SDS011;8206;51.440;6.914;2023-07-20T14:16:39;0.35;;;0.35;;
16197;SDS011;8206;51.440;6.914;2023-07-20T14:19:06;0.10;;;0.10;;
16197;SDS011;8206;51.440;6.914;2023-07-20T14:21:33;0.10;;;0.10;;
16197;SDS011;8206;51.440;6.914;2023-07-20T14:23:59;0.52;;;0.20;;
16197;SDS011;8206;51.440;6.914;2023-07-20T14:26:27;0.30;;;0.30;;
16197;SDS011;8206;51.440;6.914;2023-07-20T14:28:53;0.45;;;0.43;;
16197;SDS011;8206;51.440;6.914;2023-07-20T14:31:20;0.22;;;0.22;;
16197;SDS011;8206;51.440;6.914;2023-07-20T14:33:48;0.55;;;0.55;;
16197;SDS011;8206;51.440;6.914;2023-07-20T14:36:15;0.30;;;0.30;;
16197;SDS011;8206;51.440;6.914;2023-07-20T14:38:42;0.25;;;0.25;;
16197;SDS011;8206;51.440;6.914;2023-07-20T14:41:09;0.43;;;0.43;;
16197;SDS011;8206;51.440;6.914;2023-07-20T14:43:35;0.13;;;0.13;;
16197;SDS011;8206;51.440;6.914;2023-07-20T14:46:03;0.47;;;0.47;;
16197;SDS011;8206;51.440;6.914;2023-07-20T14:48:30;0.30;;;0.30;;
16197;SDS011;8206;51.440;6.914;2023-07-20T14:50:58;0.10;;;0.10;;
16197;SDS011;8206;51.440;6.914;2023-07-20T14:53:25;0.38;;;0.38;;
16197;SDS011;8206;51.440;6.914;2023-07-20T14:55:57;0.20;;;0.20;;
16197;SDS011;8206;51.440;6.914;2023-07-20T14:58:24;0.82;;;0.82;;
16197;SDS011;8206;51.440;6.914;2023-07-20T15:00:51;2.70;;;0.43;;
16197;SDS011;8206;51.440;6.914;2023-07-20T15:03:18;0.50;;;0.50;;
16197;SDS011;8206;51.440;6.914;2023-07-20T15:05:44;0.17;;;0.17;;